Monday, February 18, 2019, 5:24 AM EST
Back to Local

KDDH, Bennington Morse State Airport

Location: Bennington, VT, United States Lat: 42.883
Local Time: 5:24 AM EST (10:24 GMT) Lon: -73.25
Time Zone: US/Eastern Elev: 826 ft

Show me the last for .
Show Decoded

2019-02-18 04:54 METAR KDDH 180954Z AUTO 01003KT 7SM BKN036 OVC060 M04/M08 A2981 RMK AO2 SNB33E50
                 SLP105 P0001 T10441078 =
2019-02-18 03:54 METAR KDDH 180854Z AUTO 00000KT 10SM OVC060 M04/M07 A2984 RMK AO2 SNE29 SLP114
                 P0000 60000 T10441072 58023 =
2019-02-18 03:14 METAR KDDH 180814Z AUTO 00000KT 3SM -SN BR OVC030 M05/M07 A2984 RMK AO2 P0000
                 T10501072 =
2019-02-18 03:01 METAR KDDH 180801Z AUTO 00000KT 2 1/2SM -SN BR OVC034 M05/M07 A2985 RMK AO2
                 PRESFR P0000 T10501072 =
2019-02-18 02:54 METAR KDDH 180754Z AUTO 00000KT 3SM -SN BR OVC036 M05/M07 A2987 RMK AO2 SLP125
                 P0000 T10501072 =
2019-02-18 02:27 METAR KDDH 180727Z AUTO 00000KT 3SM -SN OVC030 M04/M08 A2988 RMK AO2 P0000
                 T10441078 =
2019-02-18 02:21 METAR KDDH 180721Z AUTO 00000KT 2 1/2SM -SN OVC026 M05/M08 A2989 RMK AO2 P0000
                 T10501078 =
2019-02-18 02:09 METAR KDDH 180709Z AUTO 34003KT 1 1/4SM -SN BKN020 OVC040 M04/M08 A2989 RMK AO2
                 P0000 T10441078 =
2019-02-18 02:00 METAR KDDH 180700Z AUTO 00000KT 2 1/2SM -SN BKN024 OVC040 M04/M08 A2989 RMK AO2
                 P0000 T10441083 =
2019-02-18 01:54 METAR KDDH 180654Z AUTO 00000KT 8SM -SN SCT032 OVC040 M04/M08 A2989 RMK AO2
                 SNB54 SLP133 P0000 T10441083 =
2019-02-18 00:54 METAR KDDH 180554Z AUTO 36003KT 10SM OVC055 M04/M09 A2991 RMK AO2 SLP138 60000
                 T10391089 11033 21044 58015 =
2019-02-17 23:54 METAR KDDH 180454Z AUTO 00000KT 10SM BKN046 OVC055 M04/M09 A2992 RMK AO2
                 SNB07E45 SLP142 P0000 T10391094 410171117 =
2019-02-17 23:32 METAR KDDH 180432Z AUTO 00000KT 8SM -SN OVC036 M04/M09 A2993 RMK AO2 SNB07 P0000
                 T10391094 =
2019-02-17 23:24 METAR KDDH 180424Z AUTO 00000KT 2SM -SN OVC031 M04/M09 A2993 RMK AO2 SNB07 P0000
                 T10391094 =
2019-02-17 23:17 METAR KDDH 180417Z AUTO 36004KT 3SM -SN OVC022 M03/M10 A2993 RMK AO2 SNB07 P0000
                 T10331100 =
2019-02-17 22:54 METAR KDDH 180354Z AUTO 00000KT 10SM OVC046 M03/M11 A2995 RMK AO2 SLP151
                 T10331106 =
2019-02-17 21:54 METAR KDDH 180254Z AUTO 00000KT 10SM OVC090 M03/M11 A2995 RMK AO2 SLP154
                 T10331111 56016 =
2019-02-17 20:54 METAR KDDH 180154Z AUTO 00000KT 10SM BKN085 BKN110 M04/M11 A2996 RMK AO2 SLP156
                 T10391111 =
2019-02-17 19:54 METAR KDDH 180054Z AUTO 00000KT 10SM OVC110 M03/M11 A2997 RMK AO2 SLP162
                 T10331111 =
2019-02-17 18:54 METAR KDDH 172354Z AUTO 00000KT 10SM OVC110 M03/M12 A3000 RMK AO2 SLP173
                 T10331122 11017 21039 55003 =
2019-02-17 17:54 METAR KDDH 172254Z AUTO 00000KT 10SM SCT110 M03/M13 A2999 RMK AO2 SLP169
                 T10331133 =
2019-02-17 16:54 METAR KDDH 172154Z AUTO 00000KT 10SM CLR M03/M14 A3000 RMK AO2 SLP170 T10281139
                 =
2019-02-17 15:54 METAR KDDH 172054Z AUTO 29003KT 10SM CLR M03/M14 A3001 RMK AO2 SLP174 T10281139
                 58017 =
2019-02-17 14:54 METAR KDDH 171954Z AUTO 35003KT 10SM CLR M02/M13 A3005 RMK AO2 SLP187 T10171133
                 =
2019-02-17 13:54 METAR KDDH 171854Z AUTO 28006KT 10SM CLR M03/M14 A3008 RMK AO2 SLP197 T10331139
                 =
2019-02-17 12:54 METAR KDDH 171754Z AUTO 26006KT 10SM CLR M03/M13 A3006 RMK AO2 SLP192 T10331128
                 11033 21111 58020 =
2019-02-17 11:54 METAR KDDH 171654Z AUTO VRB04KT 10SM CLR M04/M13 A3008 RMK AO2 SLP199 T10391133
                 =
2019-02-17 10:54 METAR KDDH 171554Z AUTO VRB06KT 10SM CLR M05/M13 A3012 RMK AO2 SLP210 T10501128
                 =
2019-02-17 09:54 METAR KDDH 171454Z AUTO VRB03KT 10SM CLR M06/M13 A3012 RMK AO2 SLP213 T10561133
                 51013 =
2019-02-17 08:54 METAR KDDH 171354Z AUTO 33004KT 10SM CLR M07/M13 A3012 RMK AO2 SLP212 T10721128
                 =
2019-02-17 07:54 METAR KDDH 171254Z AUTO 36003KT 10SM CLR M09/M13 A3012 RMK AO2 SLP214 T10891128
                 =
2019-02-17 06:54 METAR KDDH 171154Z AUTO 00000KT 10SM CLR M11/M14 A3009 RMK AO2 SLP202 T11111139
                 11072 21117 51016 =
2019-02-17 05:54 METAR KDDH 171054Z AUTO 00000KT 10SM CLR M10/M14 A3007 RMK AO2 SLP195 T11001139
                 =

Support USWX by starting your Amazon purchase here.